Jenkins, Minnesota
Current Conditions -  °F | °C
As of 3:33 AM on Thursday 23 Oct 2014 (Local Time) from KPWC Reporting Station
Haze Haze  
Wind Chill: 50°   Ceiling: 300
Heat Index: 50°   Visibility: 4mi
Dew Point: 50°   Wind: 0mph
Humidity: 100%   Direction: NA
Pressure: 29.97"   Gusts: NA
Location:  46.65°N, 94.33°W
Report Text: KPWC 230833Z AUTO 00000KT 4SM BR OVC003 10/10 A2997 RMK AO2
Loading
Personal Weather Stations






























Interactive Weather Map
Tropical Storm Tracking
New forecast layout! Learn more

10-Day Weather Forecast

Advertisements
Track Severe Weather on mobile